Time;durP1;ratioP1;P1;durP2;ratioP2;P2;SDS_P1;SDS_P2;PMS_P1;PMS_P2;Temp;Humidity;BMP_temperature;BMP_pressure;BME280_temperature;BME280_humidity;BME280_pressure;Samples;Min_cycle;Max_cycle;Signal;HPM_P1;HPM_P2
2021/12/01 00:00:28;;;;;;;14.20;6.00;;;;;;;-0.31;74.00;97475.39;1723186;83;21106;-66
2021/12/01 00:02:55;;;;;;;9.80;6.22;;;;;;;-0.29;73.96;97469.27;1723255;83;21022;-66
2021/12/01 00:05:25;;;;;;;10.58;7.22;;;;;;;-0.27;73.86;97472.48;1723208;83;21107;-66
2021/12/01 00:07:52;;;;;;;10.05;6.87;;;;;;;-0.26;73.76;97468.22;1723432;83;21015;-66
2021/12/01 00:10:21;;;;;;;9.45;6.70;;;;;;;-0.25;73.80;97467.70;1723315;83;21043;-66
2021/12/01 00:12:50;;;;;;;9.85;6.35;;;;;;;-0.24;73.85;97473.30;1723130;83;21533;-66
2021/12/01 00:15:16;;;;;;;10.40;7.12;;;;;;;-0.24;73.90;97475.45;1692832;83;21804;-67
2021/12/01 00:17:43;;;;;;;10.72;7.30;;;;;;;-0.23;73.98;97477.59;1688994;83;21007;-66
2021/12/01 00:20:12;;;;;;;11.97;7.58;;;;;;;-0.23;74.08;97469.05;1717674;83;21060;-66
2021/12/01 00:22:39;;;;;;;12.00;8.00;;;;;;;-0.24;74.33;97477.30;1717662;83;20991;-66
2021/12/01 00:25:07;;;;;;;9.40;6.40;;;;;;;-0.27;74.63;97473.81;1717530;83;21127;-66
2021/12/01 00:29:35;;;;;;;10.98;7.45;;;;;;;-0.30;75.23;97459.62;1799031;79;22760;-65
2021/12/01 00:32:03;;;;;;;12.95;8.03;;;;;;;-0.41;75.61;97456.61;1753453;82;21031;-65
2021/12/01 00:34:29;;;;;;;11.48;7.50;;;;;;;-0.42;75.90;97454.45;1699836;82;21617;-64
2021/12/01 00:36:56;;;;;;;11.95;8.08;;;;;;;-0.46;76.17;97461.94;1753369;82;20975;-65
2021/12/01 00:39:22;;;;;;;11.93;7.87;;;;;;;-0.49;76.39;97456.55;1753226;81;21026;-65
2021/12/01 00:41:50;;;;;;;12.68;8.10;;;;;;;-0.50;76.64;97461.08;1753431;82;20940;-65
2021/12/01 00:44:17;;;;;;;12.35;8.83;;;;;;;-0.51;76.89;97457.34;1723263;82;21061;-65
2021/12/01 00:47:31;;;;;;;;;;;;;;;-0.51;77.10;97446.66;1755621;82;21034;-65
2021/12/01 00:49:14;;;;;;;13.48;8.58;;;;;;;-0.50;77.28;97450.95;1740950;82;20111;-65
2021/12/01 00:51:41;;;;;;;13.28;8.78;;;;;;;-0.59;77.60;97439.10;1753118;82;21054;-65
2021/12/01 00:54:07;;;;;;;;;;;;;;;-0.57;77.78;97435.66;1755578;82;21592;-65
2021/12/01 00:56:33;;;;;;;12.45;8.03;;;;;;;-0.56;77.86;97427.38;1752919;81;20106;-65
2021/12/01 00:59:01;;;;;;;15.03;8.83;;;;;;;-0.66;78.16;97427.83;1752901;82;21070;-65
2021/12/01 01:01:27;;;;;;;16.40;8.30;;;;;;;-0.66;78.33;97422.48;1723793;82;21572;-65
2021/12/01 01:03:54;;;;;;;13.20;8.95;;;;;;;-0.63;78.42;97420.62;1753164;82;21054;-66
2021/12/01 01:06:20;;;;;;;;;;;;;;;-0.62;78.51;97416.91;1755629;82;21079;-66
2021/12/01 01:08:47;;;;;;;12.00;8.23;;;;;;;-0.63;78.64;97425.45;1753190;81;20127;-66
2021/12/01 01:16:45;;;;;;;11.22;8.35;;;;;;;-0.66;79.11;97407.79;1753409;82;21528;-65
2021/12/01 01:19:14;;;;;;;14.20;7.80;;;;;;;-0.64;79.18;97409.13;1752931;82;21541;-65
2021/12/01 01:21:44;;;;;;;11.78;7.45;;;;;;;-0.64;79.26;97403.79;1752920;81;21075;-65
2021/12/01 01:24:10;;;;;;;10.32;7.12;;;;;;;-0.65;79.32;97406.20;1752879;82;21042;-65
2021/12/01 01:26:37;;;;;;;10.70;7.33;;;;;;;-0.63;79.38;97404.07;1752879;82;21090;-66
2021/12/01 01:29:04;;;;;;;10.98;6.40;;;;;;;-0.62;79.41;97393.66;1743762;81;21051;-65
2021/12/01 01:31:32;;;;;;;10.08;7.25;;;;;;;-0.68;79.51;97389.88;1739780;82;21115;-65
2021/12/01 01:33:59;;;;;;;10.82;6.87;;;;;;;-0.71;79.72;97383.72;1739861;82;21075;-65
2021/12/01 01:36:26;;;;;;;;;;;;;;;-0.73;79.82;97379.15;1742348;82;21001;-65
2021/12/01 01:38:53;;;;;;;10.10;6.93;;;;;;;-0.76;80.03;97374.32;1740036;81;20103;-64
2021/12/01 01:41:19;;;;;;;10.10;7.00;;;;;;;-0.83;80.22;97370.54;1739508;82;21015;-65
2021/12/01 01:43:49;;;;;;;10.43;7.05;;;;;;;-0.86;80.38;97372.39;1739441;82;21986;-65
2021/12/01 01:46:15;;;;;;;11.45;6.65;;;;;;;-0.91;80.53;97364.85;1739354;82;21003;-64
2021/12/01 01:48:47;;;;;;;;;;;;;;;-0.90;80.72;97362.47;1742105;82;21503;-64
2021/12/01 01:51:14;;;;;;;9.55;6.58;;;;;;;-0.89;80.79;97354.21;1739418;82;20434;-65
2021/12/01 01:53:41;;;;;;;9.48;6.90;;;;;;;-0.94;80.96;97352.83;1739610;82;20996;-65
2021/12/01 01:56:07;;;;;;;11.83;7.65;;;;;;;-0.92;81.28;97355.25;1739329;82;21577;-65
2021/12/01 01:58:34;;;;;;;13.72;7.60;;;;;;;-0.92;81.28;97355.25;1739386;82;21812;-65
2021/12/01 02:01:08;;;;;;;11.08;6.72;;;;;;;-0.89;81.35;97344.05;1739171;82;21552;-66
2021/12/01 02:03:40;;;;;;;10.48;6.50;;;;;;;-0.90;81.38;97345.91;1739350;82;21110;-66
2021/12/01 02:06:08;;;;;;;11.35;7.60;;;;;;;-0.88;81.46;97333.63;1738899;82;21095;-65
2021/12/01 02:08:36;;;;;;;10.48;7.00;;;;;;;-0.90;81.62;97333.90;1738971;82;21090;-65
2021/12/01 02:11:06;;;;;;;13.90;7.03;;;;;;;-0.89;81.78;97335.52;1739179;82;21628;-65
2021/12/01 02:13:34;;;;;;;10.18;6.83;;;;;;;-0.88;81.78;97331.77;1739253;82;21055;-65
2021/12/01 02:16:00;;;;;;;;;;;;;;;-0.88;81.88;97329.09;1741890;82;21052;-66
2021/12/01 02:18:28;;;;;;;11.68;7.05;;;;;;;-0.83;81.86;97323.80;1739208;82;20134;-66
2021/12/01 02:21:16;;;;;;;11.35;7.10;;;;;;;-0.83;81.91;97333.67;1739270;82;21072;-66
2021/12/01 02:23:47;;;;;;;;;;;;;;;-0.84;81.99;97326.70;1741982;82;21058;-66
2021/12/01 02:26:16;;;;;;;10.90;6.92;;;;;;;-0.87;82.14;97329.38;1739463;81;20115;-66
2021/12/01 02:28:45;;;;;;;13.00;7.75;;;;;;;-0.87;82.26;97325.37;1739247;81;21043;-66
2021/12/01 02:31:12;;;;;;;10.03;6.75;;;;;;;-0.80;82.25;97330.48;1739145;82;21075;-66
2021/12/01 02:33:39;;;;;;;10.63;7.25;;;;;;;-0.79;82.23;97323.56;1739034;82;21082;-66
2021/12/01 02:36:10;;;;;;;;;;;;;;;-0.78;82.31;97317.13;1741686;82;21119;-66
2021/12/01 02:38:40;;;;;;;9.00;6.40;;;;;;;-0.74;82.28;97320.91;1739088;81;20084;-66
2021/12/01 02:41:08;;;;;;;10.28;6.60;;;;;;;-0.74;82.31;97317.42;1739363;82;21035;-66
2021/12/01 02:43:35;;;;;;;9.83;6.45;;;;;;;-0.72;82.32;97322.80;1739191;82;21075;-66
2021/12/01 02:46:01;;;;;;;11.68;6.83;;;;;;;-0.73;82.42;97315.03;1739357;82;21004;-66
2021/12/01 02:48:29;;;;;;;10.60;6.45;;;;;;;-0.70;82.41;97319.33;1739220;82;21102;-66
2021/12/01 02:50:56;;;;;;;10.40;6.92;;;;;;;-0.66;82.33;97311.60;1739122;82;21510;-66
2021/12/01 02:53:23;;;;;;;11.12;7.37;;;;;;;-0.65;82.32;97319.38;1739389;82;21035;-66
2021/12/01 02:55:54;;;;;;;10.85;6.75;;;;;;;-0.65;82.42;97317.23;1739255;82;20991;-65
2021/12/01 02:58:21;;;;;;;10.43;6.58;;;;;;;-0.59;82.42;97322.86;1739071;82;21014;-66
2021/12/01 03:00:48;;;;;;;10.72;7.25;;;;;;;-0.54;82.30;97317.56;1739321;82;21058;-65
2021/12/01 03:03:14;;;;;;;9.83;6.22;;;;;;;-0.56;82.30;97315.66;1739422;82;21043;-66
2021/12/01 03:05:41;;;;;;;9.85;6.72;;;;;;;-0.56;82.44;97309.79;1739240;82;21123;-64
2021/12/01 03:08:07;;;;;;;;;;;;;;;-0.52;82.43;97319.42;1741801;82;21087;-66
2021/12/01 03:10:34;;;;;;;11.95;6.65;;;;;;;-0.47;82.34;97319.47;1739386;82;20436;-66
2021/12/01 03:13:01;;;;;;;8.35;6.03;;;;;;;-0.54;82.43;97314.89;1739080;82;21004;-66
2021/12/01 03:15:28;;;;;;;10.13;5.90;;;;;;;-0.57;82.62;97314.08;1739421;82;21087;-66
2021/12/01 03:17:54;;;;;;;10.00;6.30;;;;;;;-0.52;82.60;97314.08;1739415;82;21031;-66
2021/12/01 03:20:22;;;;;;;10.40;7.58;;;;;;;-0.48;82.54;97329.88;1739084;82;21078;-66
2021/12/01 03:22:48;;;;;;;8.50;6.42;;;;;;;-0.42;82.48;97308.78;1739333;82;21035;-66
2021/12/01 03:25:15;;;;;;;9.90;6.75;;;;;;;-0.41;82.47;97311.73;1739080;82;21110;-66
2021/12/01 03:27:42;;;;;;;9.78;6.25;;;;;;;-0.46;82.58;97306.36;1739266;82;20972;-66
2021/12/01 03:30:11;;;;;;;9.95;6.83;;;;;;;-0.47;82.66;97310.11;1751276;81;21043;-66
2021/12/01 03:32:38;;;;;;;10.50;6.33;;;;;;;-0.44;82.62;97303.44;1753562;82;20991;-66
2021/12/01 03:35:07;;;;;;;9.10;5.97;;;;;;;-0.41;82.60;97306.39;1753064;82;21062;-66
2021/12/01 03:37:35;;;;;;;10.03;6.62;;;;;;;-0.42;82.63;97314.12;1726209;82;20984;-66
2021/12/01 03:40:02;;;;;;;9.95;6.17;;;;;;;-0.43;82.76;97307.73;1752926;82;21074;-66
2021/12/01 03:42:29;;;;;;;10.05;6.42;;;;;;;-0.39;82.75;97312.27;1753208;82;21055;-66
2021/12/01 03:44:56;;;;;;;9.33;6.37;;;;;;;-0.36;82.70;97307.77;1753289;82;21074;-65
2021/12/01 03:47:24;;;;;;;9.88;6.20;;;;;;;-0.32;82.64;97306.71;1753283;82;20999;-66
2021/12/01 03:49:51;;;;;;;8.90;6.42;;;;;;;-0.34;82.68;97308.30;1753151;82;21525;-66
2021/12/01 03:52:18;;;;;;;11.08;6.90;;;;;;;-0.36;82.85;97312.30;1753295;82;21631;-66
2021/12/01 03:54:46;;;;;;;9.08;7.08;;;;;;;-0.35;82.95;97308.55;1753128;82;21074;-66
2021/12/01 03:57:13;;;;;;;8.18;6.12;;;;;;;-0.31;82.90;97306.96;1753522;82;21504;-66
2021/12/01 03:59:40;;;;;;;11.60;6.62;;;;;;;-0.27;82.84;97304.85;1753227;82;21035;-66
2021/12/01 04:02:06;;;;;;;9.30;6.60;;;;;;;-0.24;82.79;97316.88;1753615;82;21458;-66
2021/12/01 04:04:33;;;;;;;10.43;7.55;;;;;;;-0.29;82.90;97304.84;1753377;82;21514;-66
2021/12/01 04:07:00;;;;;;;9.15;6.40;;;;;;;-0.36;83.04;97298.41;1753328;82;21459;-66
2021/12/01 04:09:29;;;;;;;9.15;6.37;;;;;;;-0.28;83.05;97300.56;1753377;82;21487;-66
2021/12/01 04:11:55;;;;;;;8.98;6.78;;;;;;;-0.23;82.98;97297.92;1753332;82;21022;-66
2021/12/01 04:14:22;;;;;;;8.03;5.78;;;;;;;-0.22;82.97;97300.06;1753276;82;21026;-66
2021/12/01 04:16:49;;;;;;;9.38;7.08;;;;;;;-0.24;83.02;97298.98;1753411;82;21043;-66
2021/12/01 04:19:15;;;;;;;;;;;;;;;-0.27;83.18;97311.53;1755963;82;21506;-66
2021/12/01 04:21:42;;;;;;;8.88;6.72;;;;;;;-0.26;83.32;97308.33;1753064;82;20130;-66
2021/12/01 04:24:09;;;;;;;9.75;6.70;;;;;;;-0.26;83.37;97309.67;1753130;82;21652;-66
2021/12/01 04:26:36;;;;;;;9.43;6.42;;;;;;;-0.24;83.34;97307.53;1753372;82;21576;-66
2021/12/01 04:29:04;;;;;;;9.00;6.20;;;;;;;-0.20;83.29;97305.41;1753349;81;21414;-66
2021/12/01 04:31:32;;;;;;;9.00;6.40;;;;;;;-0.19;83.27;97302.21;1753116;82;21063;-66
2021/12/01 04:34:00;;;;;;;10.50;6.70;;;;;;;-0.23;83.42;97302.45;1753023;82;21059;-66
2021/12/01 04:36:31;;;;;;;10.85;7.28;;;;;;;-0.21;83.56;97295.78;1752946;82;21062;-66
2021/12/01 04:38:56;;;;;;;8.60;6.62;;;;;;;-0.13;83.48;97298.48;1752652;82;21003;-66
2021/12/01 04:41:24;;;;;;;9.13;5.97;;;;;;;-0.12;83.27;97302.25;1752973;82;21418;-66
2021/12/01 04:43:53;;;;;;;9.45;5.85;;;;;;;-0.11;83.30;97311.08;1753272;82;21026;-67
2021/12/01 04:46:20;;;;;;;10.30;6.33;;;;;;;-0.16;83.45;97307.03;1753122;82;21461;-67
2021/12/01 04:48:48;;;;;;;8.75;6.20;;;;;;;-0.16;83.58;97309.70;1753264;82;21031;-68
2021/12/01 04:51:14;;;;;;;8.43;6.17;;;;;;;-0.15;83.59;97310.80;1753094;82;21039;-66
2021/12/01 04:53:41;;;;;;;8.75;6.33;;;;;;;-0.13;83.62;97314.52;1753044;82;21023;-66
2021/12/01 04:56:09;;;;;;;8.43;5.40;;;;;;;-0.09;83.65;97307.06;1753046;82;21087;-66
2021/12/01 04:58:36;;;;;;;8.35;6.17;;;;;;;-0.08;83.67;97315.37;1752941;82;21509;-67
2021/12/01 05:01:03;;;;;;;;;;;;;;;-0.11;83.89;97319.09;1755801;82;21561;-66
2021/12/01 05:03:32;;;;;;;8.70;6.15;;;;;;;-0.09;83.98;97316.95;1753417;82;20103;-66
2021/12/01 05:05:59;;;;;;;8.63;6.30;;;;;;;-0.07;84.01;97314.28;1753124;82;21015;-67
2021/12/01 05:08:25;;;;;;;8.20;5.72;;;;;;;-0.03;83.96;97318.57;1753635;82;20987;-67
2021/12/01 05:10:52;;;;;;;8.95;5.83;;;;;;;-0.01;83.98;97316.45;1753253;82;21065;-67
2021/12/01 05:13:19;;;;;;;8.30;5.65;;;;;;;0.03;83.95;97311.38;1753353;82;20939;-67
2021/12/01 05:15:45;;;;;;;8.35;5.97;;;;;;;-0.02;84.06;97313.50;1753358;82;21090;-67
2021/12/01 05:18:12;;;;;;;;;;;;;;;0.00;84.17;97322.09;1756091;82;20995;-67
2021/12/01 05:20:39;;;;;;;8.18;5.90;;;;;;;0.07;84.09;97329.86;1753152;82;20126;-66
2021/12/01 05:23:06;;;;;;;8.18;6.05;;;;;;;0.07;84.05;97334.68;1753347;82;21026;-66
2021/12/01 05:25:33;;;;;;;9.40;6.83;;;;;;;0.10;84.02;97335.48;1753189;82;21094;-65
2021/12/01 05:27:59;;;;;;;10.25;7.05;;;;;;;0.11;84.00;97337.63;1753433;82;21053;-66
2021/12/01 05:30:27;;;;;;;8.00;6.40;;;;;;;0.08;84.11;97340.81;1742657;82;21063;-65
2021/12/01 05:32:54;;;;;;;8.00;6.30;;;;;;;0.08;84.26;97338.94;1718714;82;21035;-66
2021/12/01 05:35:20;;;;;;;9.73;6.33;;;;;;;0.21;83.89;97349.70;1739294;82;21000;-66
2021/12/01 05:37:46;;;;;;;9.75;6.37;;;;;;;0.21;83.89;97349.70;1739573;82;21011;-66
2021/12/01 05:40:13;;;;;;;7.60;5.72;;;;;;;0.26;83.94;97355.05;1718543;82;21104;-65
2021/12/01 05:42:39;;;;;;;8.83;5.80;;;;;;;0.24;83.92;97356.67;1739457;82;21067;-65
2021/12/01 05:45:07;;;;;;;8.10;6.30;;;;;;;0.20;84.05;97362.27;1739278;82;21020;-65
2021/12/01 05:47:33;;;;;;;8.13;5.97;;;;;;;0.21;84.09;97365.75;1739030;82;21060;-66
2021/12/01 05:50:00;;;;;;;7.22;5.65;;;;;;;0.25;84.01;97368.95;1739334;82;21016;-66
2021/12/01 05:52:26;;;;;;;7.92;6.03;;;;;;;0.28;83.92;97370.33;1739254;82;21056;-65
2021/12/01 05:54:53;;;;;;;7.47;5.45;;;;;;;0.32;83.84;97376.20;1739421;82;21095;-65
2021/12/01 05:57:19;;;;;;;;;;;;;;;0.31;83.80;97383.98;1741712;82;21031;-66
2021/12/01 05:59:46;;;;;;;8.05;6.08;;;;;;;0.26;83.94;97382.62;1739239;81;20095;-66
2021/12/01 06:02:12;;;;;;;9.40;6.20;;;;;;;0.16;84.27;97389.27;1739654;82;20991;-66
2021/12/01 06:04:39;;;;;;;;;;;;;;;0.20;84.33;97395.72;1741875;82;21106;-65
2021/12/01 06:07:05;;;;;;;9.88;6.55;;;;;;;0.26;84.27;97398.67;1739478;81;20119;-67
2021/12/01 06:09:33;;;;;;;10.40;6.95;;;;;;;0.25;84.28;97394.37;1739246;82;21003;-66
2021/12/01 06:12:00;;;;;;;;;;;;;;;0.29;84.30;97400.81;1742098;82;21019;-65
2021/12/01 06:14:27;;;;;;;9.58;7.15;;;;;;;0.32;84.27;97398.95;1739456;82;20111;-66
2021/12/01 06:16:53;;;;;;;10.30;6.60;;;;;;;0.25;84.54;97405.64;1739514;82;21450;-67
2021/12/01 06:19:21;;;;;;;9.98;7.15;;;;;;;0.28;84.66;97405.92;1718606;82;21059;-66
2021/12/01 06:21:48;;;;;;;10.53;7.28;;;;;;;0.35;84.59;97413.17;1739129;82;21083;-66
2021/12/01 06:24:14;;;;;;;8.45;6.78;;;;;;;0.40;84.47;97413.70;1739654;82;21019;-66
2021/12/01 06:26:41;;;;;;;9.38;7.17;;;;;;;0.44;84.38;97420.95;1739348;82;21122;-67
2021/12/01 06:29:07;;;;;;;10.50;6.67;;;;;;;0.48;84.33;97422.04;1740220;81;21032;-67
2021/12/01 06:31:35;;;;;;;13.18;7.83;;;;;;;0.50;84.35;97423.09;1747344;82;21079;-67
2021/12/01 06:34:01;;;;;;;;;;;;;;;0.48;84.41;97423.91;1750043;82;21082;-67
2021/12/01 06:36:28;;;;;;;12.00;6.85;;;;;;;0.48;84.45;97429.27;1747312;81;20146;-67
2021/12/01 06:38:55;;;;;;;9.33;7.08;;;;;;;0.46;84.48;97438.88;1747437;82;21067;-67
2021/12/01 06:41:22;;;;;;;9.93;6.58;;;;;;;0.52;84.47;97437.57;1747495;82;21071;-67
2021/12/01 06:43:48;;;;;;;10.98;6.85;;;;;;;0.56;84.39;97440.81;1747890;82;21027;-67
2021/12/01 06:46:15;;;;;;;8.85;6.50;;;;;;;0.56;84.37;97446.69;1747504;82;21067;-67
2021/12/01 06:48:41;;;;;;;9.28;6.47;;;;;;;0.55;84.46;97451.77;1747286;82;21040;-67
2021/12/01 06:51:08;;;;;;;;;;;;;;;0.56;84.46;97452.86;1749904;82;21090;-66
2021/12/01 06:53:35;;;;;;;8.75;6.12;;;;;;;0.63;84.29;97452.61;1747585;81;20122;-67
2021/12/01 06:56:01;;;;;;;8.33;6.17;;;;;;;0.65;84.25;97454.47;1747525;81;21434;-69
2021/12/01 06:58:28;;;;;;;8.65;6.50;;;;;;;0.71;84.18;97462.81;1747636;82;21538;-67
2021/12/01 07:00:54;;;;;;;8.43;6.50;;;;;;;0.74;84.10;97464.95;1718193;82;21079;-67
2021/12/01 07:03:21;;;;;;;10.00;6.35;;;;;;;0.72;84.13;97477.26;1718172;82;21847;-67
2021/12/01 07:05:47;;;;;;;;;;;;;;;0.72;84.14;97477.79;1749728;82;21719;-67
2021/12/01 07:08:14;;;;;;;10.53;6.17;;;;;;;0.77;84.00;97477.81;1747390;82;20436;-66
2021/12/01 07:10:42;;;;;;;9.13;6.47;;;;;;;0.76;83.97;97479.69;1747227;82;21522;-66
2021/12/01 07:13:08;;;;;;;;;;;;;;;0.77;83.94;97487.19;1750211;82;20960;-66
2021/12/01 07:15:36;;;;;;;10.98;6.83;;;;;;;0.77;84.02;97489.87;1747392;81;20103;-66
2021/12/01 07:18:03;;;;;;;11.20;6.67;;;;;;;0.68;84.20;97488.22;1747480;82;21020;-66
2021/12/01 07:20:30;;;;;;;8.85;6.45;;;;;;;0.72;84.18;97490.66;1747407;82;21549;-66
2021/12/01 07:22:57;;;;;;;8.45;6.15;;;;;;;0.78;83.96;97489.59;1747399;82;21086;-66
2021/12/01 07:25:24;;;;;;;9.73;6.33;;;;;;;0.82;83.83;97493.88;1747375;82;21091;-66
2021/12/01 07:27:50;;;;;;;;;;;;;;;0.80;83.73;97496.03;1720699;82;21498;-66
2021/12/01 07:30:17;;;;;;;10.82;7.35;;;;;;;0.75;83.90;97499.49;1749703;81;20141;-66
2021/12/01 07:32:43;;;;;;;11.50;8.25;;;;;;;0.72;84.08;97510.73;1753237;82;21003;-66
2021/12/01 07:35:10;;;;;;;10.05;7.50;;;;;;;0.82;84.01;97513.97;1753085;82;21106;-66
2021/12/01 07:37:37;;;;;;;11.12;7.75;;;;;;;0.87;83.87;97524.72;1753549;82;21039;-66
2021/12/01 07:40:05;;;;;;;10.00;7.60;;;;;;;0.92;83.74;97524.19;1753083;82;21604;-66
2021/12/01 07:42:32;;;;;;;8.20;6.78;;;;;;;0.94;83.73;97536.80;1753300;82;20964;-67
2021/12/01 07:44:58;;;;;;;;;;;;;;;0.93;83.85;97535.70;1755773;82;21712;-67
2021/12/01 07:47:25;;;;;;;10.50;6.60;;;;;;;0.97;83.84;97532.78;1753134;82;20153;-67
2021/12/01 07:49:51;;;;;;;9.20;6.45;;;;;;;0.96;83.75;97535.99;1753161;82;21035;-67
2021/12/01 07:52:18;;;;;;;;;;;;;;;1.03;83.69;97533.63;1728517;82;21007;-67
2021/12/01 07:54:44;;;;;;;12.50;7.42;;;;;;;1.05;83.57;97533.62;1753050;82;20401;-67
2021/12/01 07:57:11;;;;;;;10.45;7.15;;;;;;;0.94;83.77;97544.03;1753345;82;21067;-67
2021/12/01 07:59:38;;;;;;;11.12;7.47;;;;;;;0.94;83.88;97548.86;1752910;82;21043;-67
2021/12/01 08:02:04;;;;;;;;;;;;;;;1.00;83.82;97551.81;1755822;82;21027;-67
2021/12/01 08:04:31;;;;;;;9.20;6.58;;;;;;;1.06;83.69;97552.66;1753006;82;20146;-67
2021/12/01 08:06:58;;;;;;;9.40;6.42;;;;;;;1.08;83.65;97559.88;1753051;81;21019;-67
2021/12/01 08:09:25;;;;;;;9.28;6.80;;;;;;;1.10;83.60;97571.69;1753273;82;21094;-67
2021/12/01 08:11:53;;;;;;;11.05;7.20;;;;;;;1.08;83.65;97567.92;1753020;82;21054;-67
2021/12/01 08:14:20;;;;;;;9.13;6.50;;;;;;;1.10;83.68;97564.98;1753145;82;20992;-67
2021/12/01 08:16:47;;;;;;;;;;;;;;;1.15;83.50;97565.80;1756117;82;21010;-67
2021/12/01 08:19:13;;;;;;;8.50;6.55;;;;;;;1.19;83.34;97576.80;1753405;82;20448;-67
2021/12/01 08:21:40;;;;;;;8.15;6.25;;;;;;;1.08;83.47;97577.30;1753251;82;21604;-67
2021/12/01 08:24:06;;;;;;;7.60;5.78;;;;;;;1.10;83.52;97583.75;1753554;82;21498;-67
2021/12/01 08:26:33;;;;;;;9.58;6.42;;;;;;;1.16;83.39;97583.50;1753147;82;21552;-67
2021/12/01 08:28:59;;;;;;;7.17;5.83;;;;;;;1.20;83.24;97584.58;1753399;82;21039;-67
2021/12/01 08:31:27;;;;;;;8.13;6.45;;;;;;;1.24;83.16;97594.24;1741726;82;21077;-67
2021/12/01 08:33:53;;;;;;;8.35;6.10;;;;;;;1.21;83.14;97592.06;1739349;82;21062;-67
2021/12/01 08:36:19;;;;;;;6.85;5.80;;;;;;;1.20;83.21;97597.98;1739212;82;21106;-67
2021/12/01 08:38:46;;;;;;;8.45;6.67;;;;;;;1.27;83.07;97601.75;1739318;82;21008;-67
2021/12/01 08:41:12;;;;;;;;;;;;;;;1.32;82.88;97602.56;1741600;82;21071;-67
2021/12/01 08:43:40;;;;;;;7.47;6.37;;;;;;;1.38;82.82;97606.86;1739061;82;20146;-66
2021/12/01 08:46:06;;;;;;;9.70;6.97;;;;;;;1.34;82.96;97605.80;1739108;82;21031;-66
2021/12/01 08:48:35;;;;;;;8.83;6.50;;;;;;;1.34;82.96;97604.46;1739194;82;21036;-66
2021/12/01 08:51:03;;;;;;;7.25;5.40;;;;;;;1.38;82.79;97604.73;1739172;82;21671;-67
2021/12/01 08:53:31;;;;;;;9.33;6.17;;;;;;;1.46;82.43;97614.39;1739709;82;21189;-67
2021/12/01 08:55:59;;;;;;;8.25;6.05;;;;;;;1.46;82.27;97629.14;1739315;82;21059;-66
2021/12/01 08:58:26;;;;;;;11.08;7.30;;;;;;;1.43;82.28;97628.86;1739379;82;21036;-67
2021/12/01 09:00:54;;;;;;;10.03;6.90;;;;;;;1.46;82.18;97629.14;1739299;82;21051;-66
2021/12/01 09:03:21;;;;;;;8.75;6.37;;;;;;;1.49;81.95;97624.58;1739254;82;21060;-66
2021/12/01 09:05:47;;;;;;;;;;;;;;;1.49;81.75;97630.48;1741963;82;21071;-66
2021/12/01 09:08:16;;;;;;;10.13;7.00;;;;;;;1.44;81.73;97635.31;1739144;82;20107;-66
2021/12/01 09:10:44;;;;;;;10.13;7.45;;;;;;;1.34;82.01;97636.63;1739264;82;21067;-66
2021/12/01 09:13:12;;;;;;;10.50;7.62;;;;;;;1.35;82.02;97651.63;1739274;82;21027;-66
2021/12/01 09:15:38;;;;;;;;;;;;;;;1.39;81.88;97645.20;1741885;82;21090;-66
2021/12/01 09:18:05;;;;;;;11.80;7.83;;;;;;;1.39;81.80;97649.22;1739055;82;20115;-67
2021/12/01 09:20:32;;;;;;;15.25;9.65;;;;;;;1.27;81.96;97648.13;1739226;82;21052;-66
2021/12/01 09:23:00;;;;;;;11.20;7.55;;;;;;;1.28;82.10;97653.73;1739418;82;21546;-67
2021/12/01 09:25:27;;;;;;;8.90;6.78;;;;;;;1.30;81.95;97652.15;1739312;82;21062;-66
2021/12/01 09:27:53;;;;;;;9.05;6.90;;;;;;;1.38;81.78;97663.72;1739727;82;21600;-67
2021/12/01 09:30:20;;;;;;;8.98;6.67;;;;;;;1.34;81.75;97675.50;1739498;81;21551;-67
2021/12/01 09:32:47;;;;;;;11.45;6.85;;;;;;;1.31;81.71;97680.58;1739211;82;20980;-68
2021/12/01 09:35:14;;;;;;;10.40;6.90;;;;;;;1.28;81.71;97687.77;1739541;82;22228;-67
2021/12/01 09:37:41;;;;;;;11.63;7.40;;;;;;;1.31;81.71;97692.08;1718782;82;20965;-67
2021/12/01 09:40:13;;;;;;;9.58;7.17;;;;;;;1.30;81.72;97697.19;1739472;82;21008;-67
2021/12/01 09:42:49;;;;;;;11.73;7.30;;;;;;;1.27;81.90;97700.39;1739317;82;21047;-67
2021/12/01 09:45:18;;;;;;;11.18;8.70;;;;;;;1.28;81.94;97699.84;1739441;82;21090;-67
2021/12/01 09:47:45;;;;;;;9.43;7.25;;;;;;;1.33;81.83;97708.73;1739009;82;20994;-67
2021/12/01 09:50:12;;;;;;;9.73;8.13;;;;;;;1.34;81.63;97706.33;1739323;82;21044;-67
2021/12/01 09:52:39;;;;;;;11.30;8.10;;;;;;;1.29;81.69;97721.03;1739234;82;21027;-67
2021/12/01 09:55:07;;;;;;;;;;;;;;;1.29;81.68;97717.02;1741795;82;21039;-67
2021/12/01 09:57:34;;;;;;;10.28;8.35;;;;;;;1.33;81.61;97722.13;1739370;82;20103;-67
2021/12/01 10:00:03;;;;;;;10.98;8.90;;;;;;;1.27;81.54;97718.34;1739210;82;21598;-67
2021/12/01 10:02:31;;;;;;;13.32;9.08;;;;;;;1.21;81.72;97722.86;1739271;82;21007;-67
2021/12/01 10:04:57;;;;;;;10.40;7.70;;;;;;;1.21;81.83;97726.88;1739459;82;21027;-66
2021/12/01 10:07:32;;;;;;;9.88;7.50;;;;;;;1.28;81.66;97736.02;1739184;82;21577;-66
2021/12/01 10:10:09;;;;;;;10.10;8.03;;;;;;;1.28;81.44;97747.55;1739286;82;21098;-66
2021/12/01 10:12:50;;;;;;;10.58;7.78;;;;;;;1.21;81.51;97746.98;1739442;82;20999;-66
2021/12/01 10:15:30;;;;;;;9.95;7.47;;;;;;;;;;1739328;82;21043;-66
2021/12/01 10:18:14;;;;;;;8.25;6.20;;;;;;;1.23;81.41;97759.61;1739219;82;21479;-66
2021/12/01 10:20:43;;;;;;;9.53;7.60;;;;;;;1.19;81.43;97765.20;1739199;82;21039;-66
2021/12/01 10:23:14;;;;;;;9.18;6.47;;;;;;;1.17;81.47;97763.30;1739551;82;21039;-65
2021/12/01 10:25:42;;;;;;;8.98;7.08;;;;;;;1.22;81.23;97771.39;1739165;82;21091;-66
2021/12/01 10:28:13;;;;;;;9.38;7.30;;;;;;;1.17;81.21;97774.02;1718192;82;21055;-66
2021/12/01 10:30:41;;;;;;;9.73;6.90;;;;;;;1.17;81.28;97773.24;1742143;81;21038;-66
2021/12/01 10:33:15;;;;;;;9.28;7.03;;;;;;;1.23;81.13;97781.58;1753527;82;21596;-66
2021/12/01 10:35:42;;;;;;;11.00;7.28;;;;;;;1.29;81.07;97789.39;1753201;82;21031;-66
2021/12/01 10:38:09;;;;;;;10.50;7.78;;;;;;;1.33;80.93;97787.00;1753180;82;21067;-66
2021/12/01 10:40:37;;;;;;;10.65;8.58;;;;;;;1.34;80.74;97791.30;1753500;82;21055;-66
2021/12/01 10:43:09;;;;;;;11.03;8.40;;;;;;;1.27;80.78;97796.08;1753436;82;20999;-67
2021/12/01 10:45:46;;;;;;;10.93;8.48;;;;;;;1.26;80.69;97793.13;1753492;82;21647;-67
2021/12/01 10:48:24;;;;;;;12.18;9.40;;;;;;;1.28;80.59;97799.02;1753425;82;21026;-66
2021/12/01 10:50:51;;;;;;;12.25;9.73;;;;;;;1.32;80.55;97800.93;1753196;82;21051;-66
2021/12/01 10:53:21;;;;;;;10.30;8.30;;;;;;;1.32;80.55;97805.48;1753473;82;21029;-66
2021/12/01 10:55:50;;;;;;;11.75;9.55;;;;;;;1.28;80.55;97812.42;1753191;82;21118;-67
2021/12/01 10:58:17;;;;;;;12.07;9.13;;;;;;;1.27;80.50;97807.62;1753380;82;21541;-66
2021/12/01 11:00:47;;;;;;;;;;;;;;;1.31;80.38;97803.88;1755728;82;21703;-67
2021/12/01 11:03:24;;;;;;;12.03;9.38;;;;;;;1.30;80.31;97807.63;1753482;82;20146;-66
2021/12/01 11:05:54;;;;;;;11.03;8.03;;;;;;;1.19;80.57;97814.79;1753400;82;21070;-66
2021/12/01 11:08:29;;;;;;;10.13;7.35;;;;;;;1.25;80.50;97817.77;1753261;82;21027;-66
2021/12/01 11:11:06;;;;;;;9.90;7.75;;;;;;;1.30;80.16;97819.69;1753262;82;21552;-67
2021/12/01 11:13:32;;;;;;;;;;;;;;;1.26;80.19;97813.22;1755868;82;21035;-66
2021/12/01 11:16:02;;;;;;;8.25;5.95;;;;;;;1.27;80.32;97828.25;1753082;82;20141;-66
2021/12/01 11:18:32;;;;;;;8.78;6.80;;;;;;;1.29;80.19;97831.47;1753014;82;21106;-66
2021/12/01 11:21:01;;;;;;;8.80;5.97;;;;;;;1.28;80.14;97825.30;1753221;82;21042;-66
2021/12/01 11:23:33;;;;;;;7.53;6.10;;;;;;;1.29;80.03;97822.89;1753320;82;20995;-66
2021/12/01 11:26:11;;;;;;;7.87;6.03;;;;;;;1.33;79.66;97834.72;1753128;82;21027;-66
2021/12/01 11:28:45;;;;;;;8.33;6.47;;;;;;;1.38;79.02;97829.37;1753093;82;21617;-66
2021/12/01 11:31:22;;;;;;;8.60;6.80;;;;;;;1.34;78.92;97838.22;1753223;82;21050;-66
2021/12/01 11:33:52;;;;;;;7.35;6.42;;;;;;;1.34;78.90;97832.33;1753543;82;21570;-66
2021/12/01 11:36:22;;;;;;;8.95;7.20;;;;;;;1.41;78.56;97850.33;1753284;82;21069;-67
2021/12/01 11:38:53;;;;;;;10.70;7.95;;;;;;;1.41;78.18;97844.97;1753447;82;21066;-66
2021/12/01 11:41:21;;;;;;;10.93;8.35;;;;;;;1.36;78.30;97846.27;1753152;82;21609;-66
2021/12/01 11:43:48;;;;;;;10.50;8.43;;;;;;;1.38;78.37;97847.36;1753240;82;21002;-66
2021/12/01 11:46:15;;;;;;;9.18;7.00;;;;;;;1.45;78.24;97843.36;1753413;82;21055;-66
2021/12/01 11:48:56;;;;;;;9.83;8.50;;;;;;;1.48;78.07;97844.20;1753336;82;21486;-66
2021/12/01 11:51:30;;;;;;;11.08;7.80;;;;;;;1.44;78.03;97847.66;1753209;82;21572;-67